Time;durP1;ratioP1;P1;durP2;ratioP2;P2;SDS_P1;SDS_P2;PMS_P1;PMS_P2;Temp;Humidity;BMP_temperature;BMP_pressure;BME280_temperature;BME280_humidity;BME280_pressure;Samples;Min_cycle;Max_cycle;Signal;HPM_P1;HPM_P2
2023/12/09 00:00:49;;;;;;;;;50.75;41.50;;;;;1.36;58.08;99603.50;5136763;27;8829;-79
2023/12/09 00:03:37;;;;;;;;;48.25;41.00;;;;;1.39;57.84;99608.69;5138357;27;8932;-80
2023/12/09 00:06:07;;;;;;;;;47.50;42.25;;;;;1.49;57.82;99605.44;5117087;27;8844;-79
2023/12/09 00:08:36;;;;;;;;;40.20;37.60;;;;;1.52;57.47;99610.69;5134933;27;8868;-78
2023/12/09 00:11:05;;;;;;;;;41.60;38.80;;;;;1.61;57.46;99607.34;5085268;27;8853;-80
2023/12/09 00:13:36;;;;;;;;;45.50;41.00;;;;;1.68;56.62;99604.03;5123351;27;8837;-79
2023/12/09 00:16:06;;;;;;;;;44.20;39.80;;;;;1.70;57.15;99609.22;5135141;27;8841;-80
2023/12/09 00:18:35;;;;;;;;;47.75;42.75;;;;;1.75;56.31;99611.06;5134631;27;9923;-80
2023/12/09 00:21:04;;;;;;;;;49.75;41.75;;;;;1.67;57.01;99615.22;5117796;27;8884;-79
2023/12/09 00:23:34;;;;;;;;;57.25;45.00;;;;;1.75;56.36;99623.16;5153282;27;8940;-80
2023/12/09 00:26:14;;;;;;;;;46.50;42.25;;;;;1.72;56.45;99623.09;5153042;27;8971;-80
2023/12/09 00:28:46;;;;;;;;;57.00;45.25;;;;;1.77;56.44;99621.44;5134480;27;8935;-80
2023/12/09 00:31:15;;;;;;;;;58.00;46.50;;;;;1.70;56.41;99623.06;5102958;27;8841;-79
2023/12/09 00:33:44;;;;;;;;;60.00;48.50;;;;;1.68;56.69;99621.28;5140780;27;8954;-79
2023/12/09 00:36:13;;;;;;;;;52.75;45.75;;;;;1.66;56.93;99612.63;5117880;27;8861;-80
2023/12/09 00:38:42;;;;;;;;;50.25;42.25;;;;;1.71;56.77;99616.16;5134739;27;8854;-79
2023/12/09 00:41:11;;;;;;;;;60.50;47.75;;;;;1.77;56.47;99618.84;5153015;27;8845;-79
2023/12/09 00:43:40;;;;;;;;;52.75;46.25;;;;;1.64;56.78;99618.63;5100460;27;8833;-79
2023/12/09 00:46:10;;;;;;;;;53.00;43.75;;;;;1.69;56.72;99623.91;5117083;27;8849;-79
2023/12/09 00:48:39;;;;;;;;;49.75;45.25;;;;;1.63;57.10;99624.69;5154587;27;8841;-80
2023/12/09 00:51:08;;;;;;;;;64.25;49.00;;;;;1.66;57.35;99620.41;5157826;27;8876;-79
2023/12/09 00:53:38;;;;;;;;;49.25;44.00;;;;;1.52;57.59;99628.81;5152156;27;8987;-80
2023/12/09 00:56:08;;;;;;;;;63.00;52.00;;;;;1.49;57.84;99622.72;5152633;27;8861;-82
2023/12/09 00:58:37;;;;;;;;;62.25;47.25;;;;;1.41;58.33;99617.41;5133982;27;8857;-78
2023/12/09 01:01:06;;;;;;;;;55.00;45.25;;;;;1.47;58.30;99614.91;5117643;27;9614;-79
2023/12/09 01:03:36;;;;;;;;;54.00;44.50;;;;;1.47;58.26;99619.22;5135294;27;8837;-80
2023/12/09 01:06:06;;;;;;;;;58.00;48.50;;;;;1.53;58.19;99621.91;5071807;28;8893;-78
2023/12/09 01:08:35;;;;;;;;;62.00;48.25;;;;;1.60;58.39;99609.06;5089116;28;8968;-80
2023/12/09 01:11:04;;;;;;;;;56.00;46.75;;;;;1.60;58.11;99613.41;5088377;28;8867;-78
2023/12/09 01:13:33;;;;;;;;;61.00;46.25;;;;;1.67;57.89;99614.34;5089115;28;8871;-78
2023/12/09 01:16:02;;;;;;;;;55.75;47.75;;;;;1.78;57.79;99610.22;5088252;28;8846;-77
2023/12/09 01:18:32;;;;;;;;;57.00;48.75;;;;;1.72;58.69;99607.53;5088332;28;8830;-78
2023/12/09 01:21:02;;;;;;;;;50.50;44.75;;;;;1.69;58.45;99602.28;5091410;28;8893;-78
2023/12/09 01:23:31;;;;;;;;;39.25;36.00;;;;;1.61;58.87;99595.25;5042427;28;8850;-79
2023/12/09 01:26:00;;;;;;;;;55.25;45.75;;;;;1.67;58.12;99599.66;5058183;28;8846;-79
2023/12/09 01:28:29;;;;;;;;;55.25;43.75;;;;;1.71;58.74;99596.31;5071987;28;8888;-79
2023/12/09 01:30:57;;;;;;;;;57.00;46.50;;;;;1.73;58.59;99599.78;5088475;28;9237;-77
2023/12/09 01:33:27;;;;;;;;;61.00;47.50;;;;;1.69;58.71;99594.50;5088618;28;9004;-77
2023/12/09 01:35:56;;;;;;;;;59.00;48.25;;;;;1.71;58.58;99596.31;5088160;28;9660;-80
2023/12/09 01:38:27;;;;;;;;;54.50;45.50;;;;;1.84;58.24;99589.56;5128960;27;8891;-80
2023/12/09 01:40:56;;;;;;;;;55.75;45.25;;;;;1.85;58.13;99590.47;5112062;27;9740;-79
2023/12/09 01:43:25;;;;;;;;;63.50;47.75;;;;;1.92;58.42;99590.56;5070421;28;8973;-79
2023/12/09 01:45:56;;;;;;;;;55.50;46.50;;;;;1.89;58.51;99582.75;5030293;28;9018;-79
2023/12/09 01:48:26;;;;;;;;;60.75;50.25;;;;;2.07;58.07;99576.97;5030708;28;8858;-78
2023/12/09 01:50:56;;;;;;;;;56.50;48.50;;;;;2.05;57.95;99588.16;5021438;28;8871;-80
2023/12/09 01:53:26;;;;;;;;;58.00;47.00;;;;;1.96;58.37;99584.56;5050162;28;8844;-79
2023/12/09 01:55:55;;;;;;;;;56.75;47.50;;;;;2.04;58.05;99592.47;5051378;28;10414;-78
2023/12/09 01:58:24;;;;;;;;;53.25;45.00;;;;;2.17;57.91;99590.94;5050661;28;8990;-80
2023/12/09 02:00:54;;;;;;;;;61.00;47.25;;;;;2.14;57.54;99591.72;5070777;28;8863;-77
2023/12/09 02:03:23;;;;;;;;;49.50;43.25;;;;;2.10;57.31;99589.09;5055269;28;8863;-79
2023/12/09 02:05:52;;;;;;;;;53.75;47.25;;;;;2.03;58.10;99591.59;5033700;28;8879;-78
2023/12/09 02:08:21;;;;;;;;;60.75;49.50;;;;;2.16;57.71;99583.97;5066855;28;8887;-78
2023/12/09 02:11:00;;;;;;;;;60.75;52.00;;;;;2.25;57.51;99583.25;5050061;28;8973;-77
2023/12/09 02:13:41;;;;;;;;;63.00;48.50;;;;;2.32;57.08;99588.53;5049826;28;9179;-79
2023/12/09 02:16:15;;;;;;;;;61.25;48.50;;;;;2.33;57.24;99587.66;5011054;28;9009;-80
2023/12/09 02:18:45;;;;;;;;;63.75;52.75;;;;;2.41;56.96;99580.88;5030167;28;8850;-77
2023/12/09 02:21:14;;;;;;;;;54.50;46.50;;;;;2.50;56.83;99582.69;5051492;28;8894;-80
2023/12/09 02:23:45;;;;;;;;;63.25;48.50;;;;;2.58;56.11;99588.88;5069844;28;8861;-81
2023/12/09 02:26:18;;;;;;;;;56.75;45.75;;;;;2.66;56.61;99588.09;5069903;28;8854;-78
2023/12/09 02:28:53;;;;;;;;;55.00;46.00;;;;;2.77;56.21;99587.38;5070061;28;8884;-79
2023/12/09 02:31:27;;;;;;;;;54.75;47.00;;;;;2.84;55.93;99588.28;5068349;28;9603;-78
2023/12/09 02:33:56;;;;;;;;;56.25;48.00;;;;;2.90;55.82;99587.47;5052761;28;8878;-80
2023/12/09 02:36:28;;;;;;;;;63.75;49.00;;;;;2.99;55.41;99585.84;5070231;28;9035;-78
2023/12/09 02:39:01;;;;;;;;;48.00;44.00;;;;;2.99;54.63;99583.25;5066554;28;8848;-79
2023/12/09 02:41:32;;;;;;;;;57.75;44.00;;;;;3.05;55.12;99590.22;5062457;28;8869;-79
2023/12/09 02:44:01;;;;;;;;;56.25;49.00;;;;;3.16;54.20;99587.75;5053560;28;8854;-79
2023/12/09 02:46:30;;;;;;;;;56.00;46.25;;;;;3.22;53.96;99595.59;5069654;28;8990;-79
2023/12/09 02:49:00;;;;;;;;;60.50;49.50;;;;;3.35;53.86;99576.66;5086620;28;8853;-79
2023/12/09 02:51:29;;;;;;;;;57.25;46.75;;;;;3.30;53.98;99583.56;5099064;28;8856;-80
2023/12/09 02:54:00;;;;;;;;;52.00;44.25;;;;;3.41;54.53;99581.06;5085399;28;8854;-80
2023/12/09 02:56:29;;;;;;;;;54.00;44.00;;;;;3.42;53.97;99580.25;5053134;28;8952;-81
2023/12/09 02:58:58;;;;;;;;;53.50;44.00;;;;;3.39;53.54;99578.47;5069822;28;8869;-80
2023/12/09 03:01:27;;;;;;;;;53.25;43.75;;;;;3.53;53.52;99581.22;5086877;28;8842;-80
2023/12/09 03:03:56;;;;;;;;;59.00;48.00;;;;;3.50;53.28;99588.97;5069566;28;8935;-78
2023/12/09 03:06:25;;;;;;;;;56.25;46.00;;;;;3.50;52.70;99585.50;5069982;28;8842;-78
2023/12/09 03:08:54;;;;;;;;;48.50;40.25;;;;;3.49;52.53;99584.63;5150941;27;8868;-80
2023/12/09 03:11:24;;;;;;;;;47.25;42.50;;;;;3.49;53.01;99586.38;5068205;27;8857;-79
2023/12/09 03:13:53;;;;;;;;;47.75;40.75;;;;;3.41;52.63;99581.06;5138353;27;8844;-79
2023/12/09 03:16:22;;;;;;;;;42.00;39.25;;;;;3.42;52.94;99589.78;5121051;27;8840;-80
2023/12/09 03:18:51;;;;;;;;;43.75;39.25;;;;;3.41;53.19;99583.66;5136977;27;9051;-80
2023/12/09 03:21:20;;;;;;;;;50.50;43.75;;;;;3.46;52.96;99586.34;5155302;27;8876;-79
2023/12/09 03:23:49;;;;;;;;;52.25;43.50;;;;;3.34;52.89;99593.13;5154565;27;9725;-79
2023/12/09 03:26:20;;;;;;;;;53.00;43.75;;;;;3.18;53.55;99586.94;5119203;27;8924;-81
2023/12/09 03:28:51;;;;;;;;;48.25;41.75;;;;;3.15;53.46;99591.22;5135784;27;8853;-80
2023/12/09 03:31:20;;;;;;;;;50.25;40.50;;;;;3.12;53.46;99586.84;5135911;27;8841;-78
2023/12/09 03:33:49;;;;;;;;;54.75;45.75;;;;;3.13;53.73;99591.22;5135743;27;8871;-79
2023/12/09 03:36:18;;;;;;;;;43.00;40.75;;;;;3.12;53.19;99594.66;5154052;27;8857;-79
2023/12/09 03:38:47;;;;;;;;;46.50;40.75;;;;;3.11;53.53;99589.44;5165803;27;8989;-79
2023/12/09 03:41:16;;;;;;;;;35.25;31.25;;;;;2.97;54.03;99595.34;5103216;27;8876;-77
2023/12/09 03:43:45;;;;;;;;;44.25;39.25;;;;;3.08;54.01;99602.41;5117260;27;9547;-78
2023/12/09 03:46:15;;;;;;;;;48.25;41.00;;;;;3.10;53.98;99598.09;5118404;27;9079;-79
2023/12/09 03:48:44;;;;;;;;;40.00;38.00;;;;;3.10;53.68;99601.56;5118136;27;8857;-79
2023/12/09 03:51:14;;;;;;;;;40.80;38.60;;;;;3.14;53.87;99605.06;5135462;27;8925;-78
2023/12/09 03:53:44;;;;;;;;;53.00;41.50;;;;;3.16;53.51;99603.34;5153827;27;8837;-77
2023/12/09 03:56:17;;;;;;;;;45.50;42.00;;;;;3.11;53.85;99603.31;5118095;27;8879;-77
2023/12/09 03:58:46;;;;;;;;;39.80;33.40;;;;;3.13;53.91;99599.00;5157180;27;8868;-79
2023/12/09 04:01:16;;;;;;;;;40.75;37.50;;;;;3.15;53.75;99597.28;5126970;27;8875;-80
2023/12/09 04:03:45;;;;;;;;;45.75;37.00;;;;;3.21;53.73;99601.66;5137992;27;8873;-80
2023/12/09 04:06:14;;;;;;;;;26.20;22.20;;;;;3.27;53.10;99606.91;5153126;27;8933;-80
2023/12/09 04:08:43;;;;;;;;;46.25;39.50;;;;;3.19;52.88;99604.25;5118182;27;8845;-77
2023/12/09 04:11:12;;;;;;;;;36.60;35.00;;;;;3.23;53.22;99601.69;5134700;27;9673;-78
2023/12/09 04:13:42;;;;;;;;;39.00;36.80;;;;;3.33;52.38;99601.78;5134995;27;8882;-78
2023/12/09 04:16:10;;;;;;;;;36.80;34.00;;;;;3.40;52.22;99603.56;5153182;27;8873;-77
2023/12/09 04:18:41;;;;;;;;;35.20;32.80;;;;;3.42;53.00;99607.97;5117657;27;8839;-78
2023/12/09 04:21:10;;;;;;;;;46.80;38.80;;;;;3.37;51.95;99605.28;5137069;27;8828;-78
2023/12/09 04:23:39;;;;;;;;;47.00;38.00;;;;;3.27;52.46;99603.47;5154017;27;8970;-81
2023/12/09 04:26:08;;;;;;;;;36.20;35.60;;;;;3.24;52.50;99609.50;5117930;27;8877;-80
2023/12/09 04:28:37;;;;;;;;;40.75;40.25;;;;;3.37;52.96;99613.97;5140150;27;8837;-80
2023/12/09 04:31:05;;;;;;;;;38.00;34.80;;;;;3.49;52.33;99602.84;5143742;27;8945;-78
2023/12/09 04:33:35;;;;;;;;;44.00;38.50;;;;;3.51;52.07;99603.72;5136749;27;8843;-79
2023/12/09 04:36:06;;;;;;;;;45.40;37.40;;;;;3.50;52.17;99614.94;5134233;27;8935;-79
2023/12/09 04:38:35;;;;;;;;;42.75;37.75;;;;;3.35;52.10;99610.44;5148331;27;8871;-78
2023/12/09 04:41:04;;;;;;;;;45.75;38.50;;;;;3.34;52.55;99621.72;5152918;27;8874;-79
2023/12/09 04:43:33;;;;;;;;;46.75;40.25;;;;;3.47;52.53;99619.25;5134692;27;8863;-79
2023/12/09 04:46:02;;;;;;;;;50.25;43.25;;;;;3.58;51.99;99617.63;5152943;27;8852;-79
2023/12/09 04:48:31;;;;;;;;;53.00;44.00;;;;;3.63;52.59;99615.94;5152933;27;8969;-79
2023/12/09 04:51:01;;;;;;;;;56.00;46.25;;;;;3.73;52.06;99620.38;5117313;27;8873;-78
2023/12/09 04:53:32;;;;;;;;;57.25;43.75;;;;;3.83;51.85;99616.09;5134151;27;8976;-79
2023/12/09 04:56:01;;;;;;;;;40.80;38.40;;;;;3.88;51.17;99622.19;5134287;27;8875;-80
2023/12/09 04:58:30;;;;;;;;;37.50;36.50;;;;;3.91;51.00;99611.81;5134025;27;8841;-81
2023/12/09 05:01:00;;;;;;;;;36.50;34.75;;;;;3.88;51.52;99619.59;5082552;27;8875;-79
2023/12/09 05:03:31;;;;;;;;;39.80;36.40;;;;;3.87;50.85;99619.59;5152495;27;8829;-79
2023/12/09 05:06:00;;;;;;;;;38.20;35.80;;;;;3.89;51.17;99616.16;5133686;27;8871;-82
2023/12/09 05:08:30;;;;;;;;;36.60;33.80;;;;;3.92;50.78;99623.09;5133912;27;8829;-78
2023/12/09 05:11:00;;;;;;;;;45.50;39.00;;;;;3.95;51.08;99621.38;5134667;27;8863;-78
2023/12/09 05:13:30;;;;;;;;;57.75;44.25;;;;;3.98;50.83;99623.16;5153361;27;8878;-79
2023/12/09 05:15:58;;;;;;;;;46.50;42.75;;;;;3.90;50.93;99617.00;5134783;27;8835;-79
2023/12/09 05:18:27;;;;;;;;;40.50;38.75;;;;;3.91;51.23;99618.75;5120286;27;8866;-79
2023/12/09 05:20:56;;;;;;;;;36.80;33.40;;;;;3.81;51.19;99620.44;5149472;27;8859;-78
2023/12/09 05:23:26;;;;;;;;;43.20;38.60;;;;;3.84;51.48;99627.38;5140948;27;8863;-78
2023/12/09 05:25:55;;;;;;;;;45.80;37.20;;;;;3.84;51.54;99629.97;5112866;27;8867;-79
2023/12/09 05:28:25;;;;;;;;;41.80;39.40;;;;;3.78;51.10;99630.78;5112711;27;8912;-79
2023/12/09 05:30:54;;;;;;;;;35.40;33.20;;;;;3.66;51.50;99633.28;5112448;27;9081;-79
2023/12/09 05:33:23;;;;;;;;;41.00;36.60;;;;;3.62;51.95;99640.22;5129535;27;8835;-80
2023/12/09 05:35:52;;;;;;;;;38.20;34.40;;;;;3.65;51.44;99640.22;5130102;27;8855;-79
2023/12/09 05:38:21;;;;;;;;;67.75;52.25;;;;;3.71;52.24;99642.84;5104014;27;8936;-79
2023/12/09 05:40:50;;;;;;;;;64.00;51.75;;;;;3.64;52.19;99646.28;5134133;27;8861;-80
2023/12/09 05:43:19;;;;;;;;;53.75;42.75;;;;;3.64;52.33;99650.59;5133434;27;8875;-80
2023/12/09 05:45:49;;;;;;;;;39.75;37.75;;;;;3.61;52.20;99655.78;5133344;27;8979;-78
2023/12/09 05:48:18;;;;;;;;;17.00;14.50;;;;;3.57;52.08;99647.94;5068848;27;8856;-79
2023/12/09 05:50:47;;;;;;;;;46.25;41.00;;;;;3.60;52.21;99649.72;5100259;27;8909;-80
2023/12/09 05:53:17;;;;;;;;;45.75;39.00;;;;;3.53;51.97;99655.72;5128545;27;8956;-77
2023/12/09 05:55:46;;;;;;;;;73.25;58.25;;;;;3.53;52.11;99651.38;5095010;27;8913;-80
2023/12/09 05:58:15;;;;;;;;;52.25;45.50;;;;;3.45;52.81;99659.94;5120418;27;8848;-79
2023/12/09 06:00:45;;;;;;;;;58.75;49.00;;;;;3.49;53.09;99657.41;5132503;27;8837;-79
2023/12/09 06:03:16;;;;;;;;;40.25;39.75;;;;;3.38;52.58;99657.25;5150964;27;8961;-79
2023/12/09 06:05:45;;;;;;;;;49.75;41.75;;;;;3.35;52.57;99657.22;5102850;27;8937;-80
2023/12/09 06:08:14;;;;;;;;;43.25;40.25;;;;;3.28;53.51;99664.94;5115820;27;8862;-80
2023/12/09 06:10:43;;;;;;;;;55.25;43.75;;;;;3.33;52.60;99665.88;5088765;27;8857;-78
2023/12/09 06:13:12;;;;;;;;;55.50;43.75;;;;;3.28;52.91;99667.53;5122395;27;8869;-78
2023/12/09 06:15:41;;;;;;;;;65.50;53.50;;;;;3.24;53.13;99670.97;5152722;27;8888;-78
2023/12/09 06:18:10;;;;;;;;;54.25;47.00;;;;;3.24;53.22;99664.06;5133313;27;8983;-80
2023/12/09 06:20:40;;;;;;;;;62.50;51.00;;;;;3.29;53.15;99670.16;5151133;27;8860;-79
2023/12/09 06:23:09;;;;;;;;;52.50;45.00;;;;;3.30;52.85;99666.72;5109357;27;8838;-80
2023/12/09 06:25:38;;;;;;;;;52.75;44.75;;;;;3.35;53.17;99669.34;5097831;27;8883;-79
2023/12/09 06:28:07;;;;;;;;;47.25;42.25;;;;;3.35;53.26;99666.75;5144730;27;8893;-79
2023/12/09 06:30:36;;;;;;;;;58.00;47.00;;;;;3.31;53.61;99660.66;5097525;27;8859;-79
2023/12/09 06:33:05;;;;;;;;;52.75;44.50;;;;;3.23;53.39;99666.63;5149581;27;8854;-80
2023/12/09 06:35:34;;;;;;;;;58.67;46.33;;;;;3.34;52.89;99662.44;5144606;27;8863;-77
2023/12/09 06:38:05;;;;;;;;;53.25;43.50;;;;;3.36;53.49;99655.50;5076135;27;8871;-76
2023/12/09 06:40:33;;;;;;;;;50.25;39.75;;;;;3.38;53.13;99664.19;5145866;27;8855;-77
2023/12/09 06:43:02;;;;;;;;;51.75;41.75;;;;;3.39;52.99;99664.22;5148387;27;8902;-79
2023/12/09 06:45:31;;;;;;;;;54.00;43.25;;;;;3.39;52.82;99668.50;5130488;27;9626;-77
2023/12/09 06:48:00;;;;;;;;;51.75;43.50;;;;;3.45;52.77;99668.63;5138781;27;10110;-79
2023/12/09 06:50:29;;;;;;;;;60.75;47.25;;;;;3.45;53.52;99662.53;5128157;27;8872;-78
2023/12/09 06:53:00;;;;;;;;;54.25;46.25;;;;;3.51;53.02;99655.69;5073781;27;8853;-78
2023/12/09 06:55:30;;;;;;;;;57.75;45.00;;;;;3.53;53.52;99661.78;5136547;27;8849;-77
2023/12/09 06:57:59;;;;;;;;;52.50;43.00;;;;;3.51;53.04;99663.50;5129593;27;8957;-78
2023/12/09 07:00:28;;;;;;;;;61.00;49.00;;;;;3.42;53.64;99662.53;5114589;27;8853;-80
2023/12/09 07:02:58;;;;;;;;;58.50;47.25;;;;;3.41;53.32;99666.81;5150528;27;8893;-78
2023/12/09 07:05:28;;;;;;;;;61.25;50.50;;;;;3.39;53.37;99655.53;5114520;27;8861;-78
2023/12/09 07:07:57;;;;;;;;;63.50;51.75;;;;;3.49;53.98;99666.94;5131293;27;8891;-78
2023/12/09 07:10:26;;;;;;;;;69.75;57.25;;;;;3.39;54.26;99673.72;5131599;27;8895;-79
2023/12/09 07:12:56;;;;;;;;;76.00;60.00;;;;;3.42;54.06;99678.13;5138014;27;8822;-80
2023/12/09 07:15:26;;;;;;;;;74.50;58.25;;;;;3.39;54.16;99686.72;5111165;27;8910;-78
2023/12/09 07:17:55;;;;;;;;;68.25;56.25;;;;;3.35;53.68;99684.94;5065355;28;8848;-78
2023/12/09 07:20:24;;;;;;;;;70.75;56.00;;;;;3.38;53.57;99683.25;5065466;28;8844;-78
2023/12/09 07:22:53;;;;;;;;;67.25;53.25;;;;;3.54;53.82;99693.81;5065527;28;8868;-77
2023/12/09 07:25:23;;;;;;;;;64.75;53.50;;;;;3.59;53.41;99693.00;5082250;28;9642;-75
2023/12/09 07:27:53;;;;;;;;;69.00;57.50;;;;;3.65;53.51;99699.13;5069833;28;8865;-78
2023/12/09 07:30:24;;;;;;;;;68.50;54.50;;;;;3.66;53.04;99703.47;5085159;28;8869;-78
2023/12/09 07:32:53;;;;;;;;;67.25;53.25;;;;;3.74;53.20;99707.91;5043160;28;8850;-79
2023/12/09 07:35:22;;;;;;;;;62.50;50.00;;;;;3.93;52.40;99714.13;5033892;28;8872;-78
2023/12/09 07:37:51;;;;;;;;;65.75;53.25;;;;;4.00;52.44;99715.06;5027354;28;8949;-80
2023/12/09 07:40:21;;;;;;;;;67.50;55.75;;;;;4.11;52.09;99713.44;5030565;28;8874;-76
2023/12/09 07:42:50;;;;;;;;;64.25;51.25;;;;;4.13;51.99;99708.22;4974924;28;8954;-78
2023/12/09 07:45:20;;;;;;;;;67.75;52.00;;;;;4.33;52.05;99704.03;4927392;28;8887;-78
2023/12/09 07:47:50;;;;;;;;;69.00;57.50;;;;;4.45;51.42;99702.38;4971572;28;8863;-78
2023/12/09 07:50:19;;;;;;;;;61.50;51.25;;;;;4.51;51.31;99695.50;5024581;28;8884;-77
2023/12/09 07:52:48;;;;;;;;;64.75;54.25;;;;;4.60;51.24;99697.25;5009940;28;8865;-79
2023/12/09 07:55:19;;;;;;;;;63.75;52.25;;;;;4.63;50.72;99699.88;5025169;28;8869;-79
2023/12/09 07:57:49;;;;;;;;;67.75;54.00;;;;;4.64;50.83;99691.22;5027566;28;8958;-78
2023/12/09 08:00:18;;;;;;;;;70.50;56.75;;;;;4.74;50.90;99698.22;5028082;28;8988;-78
2023/12/09 08:02:47;;;;;;;;;78.00;61.00;;;;;4.81;50.71;99696.53;5017894;28;8980;-78
2023/12/09 08:05:18;;;;;;;;;73.50;57.50;;;;;4.88;50.44;99702.63;5012217;28;8982;-77
2023/12/09 08:07:48;;;;;;;;;66.75;53.75;;;;;4.92;50.23;99704.38;5028921;28;8888;-80
2023/12/09 08:10:16;;;;;;;;;58.50;49.25;;;;;4.85;50.41;99703.50;5033613;28;8995;-82
2023/12/09 08:12:46;;;;;;;;;62.75;50.50;;;;;4.55;50.75;99705.06;5031509;28;9619;-81
2023/12/09 08:15:15;;;;;;;;;57.00;46.75;;;;;4.52;50.80;99706.75;5048430;28;8917;-81
2023/12/09 08:17:44;;;;;;;;;59.25;48.00;;;;;4.67;50.58;99711.19;5007951;28;8982;-77
2023/12/09 08:20:13;;;;;;;;;51.75;43.75;;;;;4.57;50.74;99708.53;4989939;28;8854;-78
2023/12/09 08:22:44;;;;;;;;;64.00;49.25;;;;;4.60;50.75;99706.81;4988798;28;8873;-78
2023/12/09 08:25:12;;;;;;;;;61.00;48.50;;;;;4.56;51.02;99714.63;4987555;28;8936;-78
2023/12/09 08:27:42;;;;;;;;;57.75;48.25;;;;;4.78;50.70;99721.69;4989132;28;8966;-78
2023/12/09 08:30:12;;;;;;;;;59.25;48.75;;;;;4.65;51.06;99712.94;4972765;28;8869;-80
2023/12/09 08:32:42;;;;;;;;;54.75;45.50;;;;;4.76;50.29;99719.94;4992852;28;8999;-77
2023/12/09 08:35:11;;;;;;;;;58.75;45.75;;;;;4.87;50.49;99725.19;4993282;28;8890;-79
2023/12/09 08:37:41;;;;;;;;;54.50;46.00;;;;;4.91;50.22;99719.13;4972717;28;8974;-78
2023/12/09 08:40:12;;;;;;;;;61.50;48.75;;;;;4.91;50.16;99718.28;4988604;28;8884;-78
2023/12/09 08:42:43;;;;;;;;;59.75;51.00;;;;;4.90;50.21;99722.59;4988108;28;8865;-78
2023/12/09 08:45:14;;;;;;;;;61.50;48.25;;;;;4.95;49.89;99725.25;5011352;28;9578;-77
2023/12/09 08:47:44;;;;;;;;;58.00;48.00;;;;;4.91;50.08;99726.09;5027795;28;8887;-79
2023/12/09 08:50:14;;;;;;;;;54.75;45.25;;;;;5.06;50.10;99720.94;5071787;28;8885;-76
2023/12/09 08:52:46;;;;;;;;;58.00;46.50;;;;;5.06;49.59;99720.94;5072246;27;8842;-78
2023/12/09 08:55:17;;;;;;;;;50.67;44.67;;;;;5.07;49.81;99724.41;5133157;27;8865;-77
2023/12/09 08:57:48;;;;;;;;;62.75;50.25;;;;;5.18;49.66;99714.91;5116283;27;8882;-77
2023/12/09 09:00:20;;;;;;;;;56.25;45.75;;;;;5.16;49.40;99708.81;5116211;27;8849;-77
2023/12/09 09:02:55;;;;;;;;;48.75;42.25;;;;;5.19;49.30;99711.44;5132470;27;10233;-77
2023/12/09 09:05:24;;;;;;;;;59.50;49.75;;;;;5.04;49.74;99712.25;5132662;27;9682;-79
2023/12/09 09:07:54;;;;;;;;;60.00;48.00;;;;;5.14;49.54;99708.81;5118444;27;8837;-78
2023/12/09 09:10:24;;;;;;;;;60.25;48.50;;;;;5.25;49.62;99706.25;5151777;27;8845;-79
2023/12/09 09:12:53;;;;;;;;;44.00;38.25;;;;;5.26;49.41;99707.97;5132943;27;8833;-79
2023/12/09 09:15:22;;;;;;;;;74.75;58.50;;;;;5.33;49.25;99708.91;5098481;27;8883;-76
2023/12/09 09:17:51;;;;;;;;;71.50;57.00;;;;;5.36;49.29;99701.13;5151300;27;8921;-79
2023/12/09 09:20:20;;;;;;;;;65.25;52.00;;;;;5.34;49.03;99698.50;5133237;27;8833;-80
2023/12/09 09:22:49;;;;;;;;;63.50;52.50;;;;;5.44;48.92;99703.75;5132898;27;8951;-77
2023/12/09 09:25:18;;;;;;;;;59.50;48.50;;;;;5.49;48.89;99692.47;5151733;27;8860;-78
2023/12/09 09:27:49;;;;;;;;;55.25;44.50;;;;;5.53;48.71;99695.94;5144980;27;8961;-79
2023/12/09 09:30:23;;;;;;;;;58.25;48.50;;;;;5.42;48.62;99688.09;5133100;27;8971;-78
2023/12/09 09:32:53;;;;;;;;;59.00;49.25;;;;;5.46;48.48;99692.44;5150468;27;8841;-77
2023/12/09 09:35:22;;;;;;;;;59.75;48.75;;;;;5.46;48.16;99691.56;5151217;27;8861;-77
2023/12/09 09:37:51;;;;;;;;;52.00;45.75;;;;;5.53;48.64;99688.13;5132872;27;9009;-77
2023/12/09 09:40:20;;;;;;;;;63.00;50.50;;;;;5.61;48.27;99685.53;5088524;28;8850;-77
2023/12/09 09:42:56;;;;;;;;;69.25;52.75;;;;;5.73;48.03;99675.94;5069795;28;8991;-81
2023/12/09 09:45:27;;;;;;;;;67.67;54.00;;;;;5.85;47.72;99672.50;5066218;28;8861;-78
2023/12/09 09:48:04;;;;;;;;;64.50;53.25;;;;;5.88;47.84;99669.00;5069623;28;8834;-81
2023/12/09 09:50:41;;;;;;;;;65.00;52.50;;;;;6.00;47.41;99671.63;5047815;28;8940;-80
2023/12/09 09:53:13;;;;;;;;;64.25;50.50;;;;;6.11;46.94;99669.00;5052435;28;8841;-80
2023/12/09 09:55:42;;;;;;;;;60.00;48.50;;;;;6.14;46.96;99662.94;5087305;28;8895;-81
2023/12/09 09:58:16;;;;;;;;;61.50;51.25;;;;;6.18;47.04;99646.38;5040347;28;8846;-80
2023/12/09 10:00:45;;;;;;;;;58.75;50.00;;;;;6.17;46.92;99644.63;5052975;28;8834;-81
2023/12/09 10:03:15;;;;;;;;;48.25;39.75;;;;;6.20;46.54;99653.34;5069532;28;9741;-80
2023/12/09 10:05:45;;;;;;;;;61.50;50.75;;;;;6.27;46.32;99639.41;5047150;28;8850;-80
2023/12/09 10:08:14;;;;;;;;;60.50;49.75;;;;;6.31;46.81;99642.88;5029447;28;8920;-78
2023/12/09 10:10:43;;;;;;;;;57.75;46.25;;;;;6.40;45.90;99626.31;5019168;28;8854;-81
2023/12/09 10:13:13;;;;;;;;;58.25;49.00;;;;;6.46;45.29;99634.16;5067827;28;8905;-80
2023/12/09 10:15:42;;;;;;;;;55.50;45.25;;;;;6.49;45.62;99634.13;5072595;28;8849;-80
2023/12/09 10:18:14;;;;;;;;;42.25;38.50;;;;;6.46;45.23;99632.41;5058371;28;8861;-82
2023/12/09 10:20:46;;;;;;;;;51.25;42.25;;;;;6.47;45.11;99633.25;5072177;28;8881;-80
2023/12/09 10:23:17;;;;;;;;;51.25;42.50;;;;;6.49;45.33;99626.28;5070114;28;8862;-82
2023/12/09 10:25:48;;;;;;;;;55.75;46.75;;;;;6.61;45.35;99621.03;5045772;28;9031;-80
2023/12/09 10:28:20;;;;;;;;;57.25;46.25;;;;;6.54;44.97;99621.94;5045821;28;9015;-82
2023/12/09 10:30:49;;;;;;;;;62.75;50.00;;;;;6.38;45.04;99622.84;5013375;28;8869;-79
2023/12/09 10:33:18;;;;;;;;;58.50;49.00;;;;;6.51;45.51;99619.31;5045591;28;8858;-81
2023/12/09 10:35:47;;;;;;;;;62.75;49.50;;;;;6.58;45.79;99618.44;5029185;28;8940;-80
2023/12/09 10:38:17;;;;;;;;;61.00;49.25;;;;;6.56;45.53;99617.56;5000299;28;8981;-82
2023/12/09 10:40:46;;;;;;;;;62.75;51.50;;;;;6.64;45.46;99615.78;5049807;28;8883;-82
2023/12/09 10:43:15;;;;;;;;;59.00;48.00;;;;;6.53;45.58;99617.59;5086461;28;8940;-81
2023/12/09 10:45:45;;;;;;;;;53.00;44.25;;;;;6.69;45.54;99619.25;5069836;28;8968;-79
2023/12/09 10:48:14;;;;;;;;;29.00;24.75;;;;;6.78;45.36;99607.91;5069988;28;8862;-82
2023/12/09 10:50:46;;;;;;;;;60.00;47.25;;;;;6.86;45.12;99607.88;5086762;28;8862;-83
2023/12/09 10:53:15;;;;;;;;;49.50;41.75;;;;;6.70;45.23;99613.19;5069685;28;8881;-80
2023/12/09 10:55:44;;;;;;;;;57.50;47.75;;;;;6.86;45.20;99608.75;5053072;28;8978;-81
2023/12/09 10:58:15;;;;;;;;;51.25;42.75;;;;;6.82;44.89;99609.63;5132007;27;8839;-80
2023/12/09 11:00:46;;;;;;;;;43.00;38.50;;;;;6.86;43.68;99602.66;5135379;27;9613;-81
2023/12/09 11:03:16;;;;;;;;;50.25;42.75;;;;;6.94;44.39;99606.13;5111538;27;8864;-81
2023/12/09 11:05:51;;;;;;;;;47.00;41.00;;;;;6.95;43.38;99602.63;5094369;28;8847;-81
2023/12/09 11:08:21;;;;;;;;;54.75;44.00;;;;;6.96;43.76;99599.13;5082148;28;8850;-79
2023/12/09 11:10:52;;;;;;;;;58.75;47.25;;;;;7.03;44.02;99595.63;5072221;28;9582;-81
2023/12/09 11:13:25;;;;;;;;;54.50;44.75;;;;;7.13;43.75;99599.03;5066047;28;8860;-80
2023/12/09 11:16:11;;;;;;;;;59.50;48.50;;;;;7.28;43.94;99596.31;5045595;28;8961;-80
2023/12/09 11:18:51;;;;;;;;;60.00;48.00;;;;;7.32;43.51;99588.47;5048801;28;8848;-81
2023/12/09 11:21:21;;;;;;;;;36.25;32.50;;;;;7.09;44.02;99590.34;5043097;28;8983;-82
2023/12/09 11:23:52;;;;;;;;;55.00;45.50;;;;;6.95;44.76;99586.09;5065877;28;8895;-80
2023/12/09 11:26:28;;;;;;;;;54.75;44.75;;;;;6.97;43.64;99581.72;5035659;28;9007;-79
2023/12/09 11:29:01;;;;;;;;;53.00;45.75;;;;;7.06;43.82;99584.25;5049444;28;9757;-80
2023/12/09 11:31:39;;;;;;;;;54.75;46.00;;;;;7.26;43.77;99568.47;5036871;28;8959;-80
2023/12/09 11:34:09;;;;;;;;;61.00;47.50;;;;;7.16;43.39;99569.41;5049264;28;10054;-83
2023/12/09 11:36:40;;;;;;;;;63.00;51.00;;;;;7.05;44.42;99575.56;5062528;28;8887;-81
2023/12/09 11:39:12;;;;;;;;;56.25;48.25;;;;;7.11;43.48;99577.28;5060661;27;8857;-81
2023/12/09 11:41:42;;;;;;;;;61.25;49.25;;;;;6.97;44.46;99581.72;5114915;27;8845;-81
2023/12/09 11:44:12;;;;;;;;;60.75;50.00;;;;;6.81;44.68;99573.91;5114853;27;8841;-81
2023/12/09 11:46:43;;;;;;;;;45.25;36.50;;;;;6.80;44.71;99572.19;5131850;27;8929;-80